sensor_id;sensor_type;location;lat;lon;timestamp;P1;durP1;ratioP1;P2;durP2;ratioP2
59458;SDS011;45269;43.568;22.244;2023-03-05T00:00:10;208.13;;;136.93;;
59458;SDS011;45269;43.568;22.244;2023-03-05T00:02:36;200.40;;;129.77;;
59458;SDS011;45269;43.568;22.244;2023-03-05T00:05:03;141.85;;;94.57;;
59458;SDS011;45269;43.568;22.244;2023-03-05T00:07:30;145.98;;;96.65;;
59458;SDS011;45269;43.568;22.244;2023-03-05T00:09:57;126.47;;;84.50;;
59458;SDS011;45269;43.568;22.244;2023-03-05T00:12:22;131.70;;;87.68;;
59458;SDS011;45269;43.568;22.244;2023-03-05T00:14:48;114.20;;;76.35;;
59458;SDS011;45269;43.568;22.244;2023-03-05T00:17:13;100.28;;;68.95;;
59458;SDS011;45269;43.568;22.244;2023-03-05T00:19:38;105.00;;;75.25;;
59458;SDS011;45269;43.568;22.244;2023-03-05T00:22:04;144.55;;;105.03;;
59458;SDS011;45269;43.568;22.244;2023-03-05T00:24:29;125.90;;;91.97;;
59458;SDS011;45269;43.568;22.244;2023-03-05T00:26:54;131.32;;;96.10;;
59458;SDS011;45269;43.568;22.244;2023-03-05T00:29:20;145.88;;;103.45;;
59458;SDS011;45269;43.568;22.244;2023-03-05T00:31:48;163.93;;;118.47;;
59458;SDS011;45269;43.568;22.244;2023-03-05T00:34:14;148.60;;;111.80;;
59458;SDS011;45269;43.568;22.244;2023-03-05T00:36:41;143.70;;;104.90;;
59458;SDS011;45269;43.568;22.244;2023-03-05T00:39:07;133.05;;;95.03;;
59458;SDS011;45269;43.568;22.244;2023-03-05T00:41:32;139.43;;;100.40;;
59458;SDS011;45269;43.568;22.244;2023-03-05T00:43:57;171.20;;;115.43;;
59458;SDS011;45269;43.568;22.244;2023-03-05T00:46:23;189.68;;;119.68;;
59458;SDS011;45269;43.568;22.244;2023-03-05T00:48:48;148.80;;;95.18;;
59458;SDS011;45269;43.568;22.244;2023-03-05T00:51:13;221.25;;;141.10;;
59458;SDS011;45269;43.568;22.244;2023-03-05T00:53:39;214.60;;;139.30;;
59458;SDS011;45269;43.568;22.244;2023-03-05T00:56:04;165.10;;;114.95;;
59458;SDS011;45269;43.568;22.244;2023-03-05T00:58:30;211.23;;;135.07;;
59458;SDS011;45269;43.568;22.244;2023-03-05T01:00:58;202.05;;;133.38;;
59458;SDS011;45269;43.568;22.244;2023-03-05T01:03:24;291.73;;;170.70;;
59458;SDS011;45269;43.568;22.244;2023-03-05T01:05:49;214.85;;;143.85;;
59458;SDS011;45269;43.568;22.244;2023-03-05T01:08:15;181.82;;;124.45;;
59458;SDS011;45269;43.568;22.244;2023-03-05T01:10:41;237.80;;;148.02;;
59458;SDS011;45269;43.568;22.244;2023-03-05T01:13:06;214.75;;;141.23;;
59458;SDS011;45269;43.568;22.244;2023-03-05T01:15:31;171.73;;;115.20;;
59458;SDS011;45269;43.568;22.244;2023-03-05T01:17:57;172.30;;;115.10;;
59458;SDS011;45269;43.568;22.244;2023-03-05T01:20:22;184.70;;;125.63;;
59458;SDS011;45269;43.568;22.244;2023-03-05T01:22:47;238.30;;;150.30;;
59458;SDS011;45269;43.568;22.244;2023-03-05T01:25:13;261.05;;;160.85;;
59458;SDS011;45269;43.568;22.244;2023-03-05T01:27:38;243.02;;;156.18;;
59458;SDS011;45269;43.568;22.244;2023-03-05T01:30:04;206.55;;;138.73;;
59458;SDS011;45269;43.568;22.244;2023-03-05T01:32:29;188.20;;;129.32;;
59458;SDS011;45269;43.568;22.244;2023-03-05T01:34:55;132.02;;;91.82;;
59458;SDS011;45269;43.568;22.244;2023-03-05T01:37:20;141.55;;;95.57;;
59458;SDS011;45269;43.568;22.244;2023-03-05T01:39:45;126.47;;;89.55;;
59458;SDS011;45269;43.568;22.244;2023-03-05T01:42:10;124.63;;;87.95;;
59458;SDS011;45269;43.568;22.244;2023-03-05T01:44:36;133.98;;;87.60;;
59458;SDS011;45269;43.568;22.244;2023-03-05T01:47:01;116.35;;;79.75;;
59458;SDS011;45269;43.568;22.244;2023-03-05T01:49:28;118.65;;;82.05;;
59458;SDS011;45269;43.568;22.244;2023-03-05T01:54:28;110.45;;;76.07;;
59458;SDS011;45269;43.568;22.244;2023-03-05T01:56:56;122.32;;;90.70;;
59458;SDS011;45269;43.568;22.244;2023-03-05T01:59:23;116.57;;;84.63;;
59458;SDS011;45269;43.568;22.244;2023-03-05T02:01:49;106.43;;;78.75;;
59458;SDS011;45269;43.568;22.244;2023-03-05T02:04:16;136.32;;;90.38;;
59458;SDS011;45269;43.568;22.244;2023-03-05T02:06:43;153.07;;;104.90;;
59458;SDS011;45269;43.568;22.244;2023-03-05T02:09:09;148.27;;;101.00;;
59458;SDS011;45269;43.568;22.244;2023-03-05T02:11:34;148.85;;;98.78;;
59458;SDS011;45269;43.568;22.244;2023-03-05T02:14:00;162.82;;;108.35;;
59458;SDS011;45269;43.568;22.244;2023-03-05T02:16:27;202.52;;;141.52;;
59458;SDS011;45269;43.568;22.244;2023-03-05T02:18:59;152.27;;;99.63;;
59458;SDS011;45269;43.568;22.244;2023-03-05T02:21:28;160.80;;;109.32;;
59458;SDS011;45269;43.568;22.244;2023-03-05T02:24:00;144.77;;;101.28;;
59458;SDS011;45269;43.568;22.244;2023-03-05T02:26:25;159.13;;;105.45;;
59458;SDS011;45269;43.568;22.244;2023-03-05T02:28:51;147.40;;;101.20;;
59458;SDS011;45269;43.568;22.244;2023-03-05T02:31:19;158.82;;;114.38;;
59458;SDS011;45269;43.568;22.244;2023-03-05T02:33:45;161.38;;;112.25;;
59458;SDS011;45269;43.568;22.244;2023-03-05T02:36:11;126.00;;;93.57;;
59458;SDS011;45269;43.568;22.244;2023-03-05T02:38:36;150.85;;;106.75;;
59458;SDS011;45269;43.568;22.244;2023-03-05T02:41:02;166.73;;;120.25;;
59458;SDS011;45269;43.568;22.244;2023-03-05T02:43:27;160.95;;;116.30;;
59458;SDS011;45269;43.568;22.244;2023-03-05T02:45:53;163.15;;;116.50;;
59458;SDS011;45269;43.568;22.244;2023-03-05T02:48:18;143.75;;;100.43;;
59458;SDS011;45269;43.568;22.244;2023-03-05T02:50:43;212.13;;;159.00;;
59458;SDS011;45269;43.568;22.244;2023-03-05T02:53:09;193.38;;;147.30;;
59458;SDS011;45269;43.568;22.244;2023-03-05T02:55:34;152.23;;;105.68;;
59458;SDS011;45269;43.568;22.244;2023-03-05T02:58:00;140.68;;;96.00;;
59458;SDS011;45269;43.568;22.244;2023-03-05T03:00:25;117.53;;;86.07;;
59458;SDS011;45269;43.568;22.244;2023-03-05T03:02:50;142.85;;;100.03;;
59458;SDS011;45269;43.568;22.244;2023-03-05T03:05:16;156.60;;;107.72;;
59458;SDS011;45269;43.568;22.244;2023-03-05T03:07:41;219.00;;;133.63;;
59458;SDS011;45269;43.568;22.244;2023-03-05T03:10:06;190.18;;;126.05;;
59458;SDS011;45269;43.568;22.244;2023-03-05T03:12:36;140.65;;;92.90;;
59458;SDS011;45269;43.568;22.244;2023-03-05T03:15:01;114.80;;;76.00;;
59458;SDS011;45269;43.568;22.244;2023-03-05T03:17:26;109.65;;;72.90;;
59458;SDS011;45269;43.568;22.244;2023-03-05T03:19:51;116.20;;;80.43;;
59458;SDS011;45269;43.568;22.244;2023-03-05T03:22:17;118.43;;;82.85;;
59458;SDS011;45269;43.568;22.244;2023-03-05T03:24:42;91.80;;;59.58;;
59458;SDS011;45269;43.568;22.244;2023-03-05T03:27:08;98.28;;;65.00;;
59458;SDS011;45269;43.568;22.244;2023-03-05T03:29:33;100.57;;;70.50;;
59458;SDS011;45269;43.568;22.244;2023-03-05T03:31:58;108.25;;;73.00;;
59458;SDS011;45269;43.568;22.244;2023-03-05T03:34:24;120.53;;;79.32;;
59458;SDS011;45269;43.568;22.244;2023-03-05T03:36:50;108.38;;;71.68;;
59458;SDS011;45269;43.568;22.244;2023-03-05T03:39:16;105.22;;;65.90;;
59458;SDS011;45269;43.568;22.244;2023-03-05T03:41:46;99.70;;;68.82;;
59458;SDS011;45269;43.568;22.244;2023-03-05T03:44:12;90.60;;;66.15;;
59458;SDS011;45269;43.568;22.244;2023-03-05T03:46:38;91.50;;;64.82;;
59458;SDS011;45269;43.568;22.244;2023-03-05T03:49:04;85.97;;;53.83;;
59458;SDS011;45269;43.568;22.244;2023-03-05T03:51:29;83.18;;;53.03;;
59458;SDS011;45269;43.568;22.244;2023-03-05T03:53:55;88.03;;;56.97;;
59458;SDS011;45269;43.568;22.244;2023-03-05T03:56:20;77.68;;;54.00;;
59458;SDS011;45269;43.568;22.244;2023-03-05T03:58:45;85.97;;;57.72;;
59458;SDS011;45269;43.568;22.244;2023-03-05T04:01:13;88.68;;;62.28;;
59458;SDS011;45269;43.568;22.244;2023-03-05T04:03:38;89.82;;;58.67;;
59458;SDS011;45269;43.568;22.244;2023-03-05T04:06:04;107.72;;;69.88;;
59458;SDS011;45269;43.568;22.244;2023-03-05T04:08:29;102.13;;;66.93;;
59458;SDS011;45269;43.568;22.244;2023-03-05T04:10:54;111.80;;;74.32;;
59458;SDS011;45269;43.568;22.244;2023-03-05T04:13:20;143.50;;;92.25;;
59458;SDS011;45269;43.568;22.244;2023-03-05T04:15:45;147.52;;;94.20;;
59458;SDS011;45269;43.568;22.244;2023-03-05T04:18:10;161.73;;;103.05;;
59458;SDS011;45269;43.568;22.244;2023-03-05T04:20:35;156.30;;;108.85;;
59458;SDS011;45269;43.568;22.244;2023-03-05T04:23:01;140.98;;;94.70;;
59458;SDS011;45269;43.568;22.244;2023-03-05T04:25:26;140.77;;;95.60;;
59458;SDS011;45269;43.568;22.244;2023-03-05T04:27:51;168.35;;;111.40;;
59458;SDS011;45269;43.568;22.244;2023-03-05T04:30:17;137.40;;;94.72;;
59458;SDS011;45269;43.568;22.244;2023-03-05T04:32:42;108.40;;;75.10;;
59458;SDS011;45269;43.568;22.244;2023-03-05T04:35:08;85.32;;;59.58;;
59458;SDS011;45269;43.568;22.244;2023-03-05T04:37:33;85.03;;;58.15;;
59458;SDS011;45269;43.568;22.244;2023-03-05T04:39:58;99.90;;;71.10;;
59458;SDS011;45269;43.568;22.244;2023-03-05T04:42:23;159.63;;;104.88;;
59458;SDS011;45269;43.568;22.244;2023-03-05T04:44:49;164.88;;;111.18;;
59458;SDS011;45269;43.568;22.244;2023-03-05T04:47:14;154.10;;;105.80;;
59458;SDS011;45269;43.568;22.244;2023-03-05T04:49:40;135.85;;;93.82;;
59458;SDS011;45269;43.568;22.244;2023-03-05T04:52:05;108.75;;;75.03;;
59458;SDS011;45269;43.568;22.244;2023-03-05T04:54:30;101.45;;;68.85;;
59458;SDS011;45269;43.568;22.244;2023-03-05T04:56:56;98.40;;;68.65;;
59458;SDS011;45269;43.568;22.244;2023-03-05T04:59:21;87.78;;;62.63;;
59458;SDS011;45269;43.568;22.244;2023-03-05T05:01:46;73.47;;;49.88;;
59458;SDS011;45269;43.568;22.244;2023-03-05T05:04:12;94.47;;;62.63;;
59458;SDS011;45269;43.568;22.244;2023-03-05T05:06:37;92.75;;;62.72;;
59458;SDS011;45269;43.568;22.244;2023-03-05T05:09:02;91.15;;;58.60;;
59458;SDS011;45269;43.568;22.244;2023-03-05T05:11:28;100.90;;;65.03;;
59458;SDS011;45269;43.568;22.244;2023-03-05T05:13:53;84.30;;;55.72;;
59458;SDS011;45269;43.568;22.244;2023-03-05T05:16:19;69.47;;;48.15;;
59458;SDS011;45269;43.568;22.244;2023-03-05T05:18:44;60.85;;;44.78;;
59458;SDS011;45269;43.568;22.244;2023-03-05T05:21:10;66.15;;;44.92;;
59458;SDS011;45269;43.568;22.244;2023-03-05T05:23:35;66.70;;;48.10;;
59458;SDS011;45269;43.568;22.244;2023-03-05T05:26:02;70.43;;;50.40;;
59458;SDS011;45269;43.568;22.244;2023-03-05T05:28:27;72.00;;;52.13;;
59458;SDS011;45269;43.568;22.244;2023-03-05T05:30:53;76.35;;;54.08;;
59458;SDS011;45269;43.568;22.244;2023-03-05T05:33:19;77.90;;;54.45;;
59458;SDS011;45269;43.568;22.244;2023-03-05T05:35:44;83.10;;;57.20;;
59458;SDS011;45269;43.568;22.244;2023-03-05T05:38:09;81.00;;;52.67;;
59458;SDS011;45269;43.568;22.244;2023-03-05T05:40:35;80.72;;;57.75;;
59458;SDS011;45269;43.568;22.244;2023-03-05T05:43:00;64.45;;;48.88;;
59458;SDS011;45269;43.568;22.244;2023-03-05T05:45:25;70.85;;;51.95;;
59458;SDS011;45269;43.568;22.244;2023-03-05T05:47:51;68.82;;;45.88;;
59458;SDS011;45269;43.568;22.244;2023-03-05T05:50:17;113.22;;;83.10;;
59458;SDS011;45269;43.568;22.244;2023-03-05T05:52:43;81.97;;;60.28;;
59458;SDS011;45269;43.568;22.244;2023-03-05T05:55:08;82.28;;;59.25;;
59458;SDS011;45269;43.568;22.244;2023-03-05T05:57:34;71.95;;;53.05;;
59458;SDS011;45269;43.568;22.244;2023-03-05T05:59:59;66.60;;;53.13;;
59458;SDS011;45269;43.568;22.244;2023-03-05T06:02:24;72.00;;;54.25;;
59458;SDS011;45269;43.568;22.244;2023-03-05T06:04:51;80.05;;;62.08;;
59458;SDS011;45269;43.568;22.244;2023-03-05T06:07:16;126.65;;;92.65;;
59458;SDS011;45269;43.568;22.244;2023-03-05T06:09:42;96.10;;;72.60;;
59458;SDS011;45269;43.568;22.244;2023-03-05T06:12:07;77.25;;;59.95;;
59458;SDS011;45269;43.568;22.244;2023-03-05T06:14:32;121.22;;;92.82;;
59458;SDS011;45269;43.568;22.244;2023-03-05T06:16:58;136.65;;;101.82;;
59458;SDS011;45269;43.568;22.244;2023-03-05T06:19:23;125.75;;;93.97;;
59458;SDS011;45269;43.568;22.244;2023-03-05T06:21:48;99.57;;;75.53;;
59458;SDS011;45269;43.568;22.244;2023-03-05T06:24:14;106.25;;;78.97;;
59458;SDS011;45269;43.568;22.244;2023-03-05T06:26:39;106.13;;;82.05;;
59458;SDS011;45269;43.568;22.244;2023-03-05T06:29:04;123.03;;;94.22;;
59458;SDS011;45269;43.568;22.244;2023-03-05T06:31:30;139.85;;;101.32;;
59458;SDS011;45269;43.568;22.244;2023-03-05T06:33:56;106.07;;;84.65;;
59458;SDS011;45269;43.568;22.244;2023-03-05T06:36:22;152.50;;;117.53;;
59458;SDS011;45269;43.568;22.244;2023-03-05T06:38:48;287.17;;;208.75;;
59458;SDS011;45269;43.568;22.244;2023-03-05T06:41:15;106.78;;;76.75;;
59458;SDS011;45269;43.568;22.244;2023-03-05T06:43:41;71.20;;;51.58;;
59458;SDS011;45269;43.568;22.244;2023-03-05T06:46:08;71.07;;;53.22;;
59458;SDS011;45269;43.568;22.244;2023-03-05T06:48:35;84.75;;;57.22;;
59458;SDS011;45269;43.568;22.244;2023-03-05T06:51:00;72.30;;;53.75;;
59458;SDS011;45269;43.568;22.244;2023-03-05T06:53:25;88.88;;;64.60;;
59458;SDS011;45269;43.568;22.244;2023-03-05T06:55:51;79.05;;;59.15;;
59458;SDS011;45269;43.568;22.244;2023-03-05T06:58:17;103.07;;;82.47;;
59458;SDS011;45269;43.568;22.244;2023-03-05T07:00:43;92.88;;;71.95;;
59458;SDS011;45269;43.568;22.244;2023-03-05T07:03:08;83.65;;;64.47;;
59458;SDS011;45269;43.568;22.244;2023-03-05T07:05:36;92.47;;;65.60;;
59458;SDS011;45269;43.568;22.244;2023-03-05T07:08:02;85.22;;;61.47;;
59458;SDS011;45269;43.568;22.244;2023-03-05T07:10:28;94.72;;;61.35;;
59458;SDS011;45269;43.568;22.244;2023-03-05T07:12:53;70.45;;;53.60;;
59458;SDS011;45269;43.568;22.244;2023-03-05T07:15:18;69.55;;;52.90;;
59458;SDS011;45269;43.568;22.244;2023-03-05T07:17:44;68.95;;;48.70;;
59458;SDS011;45269;43.568;22.244;2023-03-05T07:20:09;75.18;;;52.67;;
59458;SDS011;45269;43.568;22.244;2023-03-05T07:22:35;74.28;;;55.55;;
59458;SDS011;45269;43.568;22.244;2023-03-05T07:25:01;69.65;;;47.63;;
59458;SDS011;45269;43.568;22.244;2023-03-05T07:27:26;55.67;;;41.67;;
59458;SDS011;45269;43.568;22.244;2023-03-05T07:29:51;64.50;;;49.13;;
59458;SDS011;45269;43.568;22.244;2023-03-05T07:32:16;58.78;;;44.22;;
59458;SDS011;45269;43.568;22.244;2023-03-05T07:34:42;54.40;;;42.08;;
59458;SDS011;45269;43.568;22.244;2023-03-05T07:37:07;50.15;;;37.53;;
59458;SDS011;45269;43.568;22.244;2023-03-05T07:39:32;59.10;;;45.13;;
59458;SDS011;45269;43.568;22.244;2023-03-05T07:41:58;70.20;;;58.75;;
59458;SDS011;45269;43.568;22.244;2023-03-05T07:44:23;67.80;;;54.00;;
59458;SDS011;45269;43.568;22.244;2023-03-05T07:46:48;58.53;;;48.88;;
59458;SDS011;45269;43.568;22.244;2023-03-05T07:49:14;56.05;;;41.72;;
59458;SDS011;45269;43.568;22.244;2023-03-05T07:51:39;55.17;;;43.03;;
59458;SDS011;45269;43.568;22.244;2023-03-05T07:54:05;47.90;;;37.08;;
59458;SDS011;45269;43.568;22.244;2023-03-05T07:56:32;50.83;;;32.47;;
59458;SDS011;45269;43.568;22.244;2023-03-05T07:59:00;60.80;;;41.78;;
59458;SDS011;45269;43.568;22.244;2023-03-05T08:01:26;43.38;;;33.58;;
59458;SDS011;45269;43.568;22.244;2023-03-05T08:03:51;169.48;;;95.47;;
59458;SDS011;45269;43.568;22.244;2023-03-05T08:06:16;66.97;;;49.03;;
59458;SDS011;45269;43.568;22.244;2023-03-05T08:08:42;41.00;;;32.35;;
59458;SDS011;45269;43.568;22.244;2023-03-05T08:11:08;38.72;;;30.35;;
59458;SDS011;45269;43.568;22.244;2023-03-05T08:13:34;40.40;;;30.08;;
59458;SDS011;45269;43.568;22.244;2023-03-05T08:16:03;39.45;;;29.63;;
59458;SDS011;45269;43.568;22.244;2023-03-05T08:18:28;44.00;;;32.78;;
59458;SDS011;45269;43.568;22.244;2023-03-05T08:20:54;43.08;;;31.00;;
59458;SDS011;45269;43.568;22.244;2023-03-05T08:23:19;62.75;;;43.17;;
59458;SDS011;45269;43.568;22.244;2023-03-05T08:25:44;51.75;;;36.28;;
59458;SDS011;45269;43.568;22.244;2023-03-05T08:28:10;47.67;;;33.92;;
59458;SDS011;45269;43.568;22.244;2023-03-05T08:30:35;43.15;;;33.05;;
59458;SDS011;45269;43.568;22.244;2023-03-05T08:33:00;45.25;;;34.60;;
59458;SDS011;45269;43.568;22.244;2023-03-05T08:35:25;46.90;;;36.42;;
59458;SDS011;45269;43.568;22.244;2023-03-05T08:37:51;43.10;;;33.33;;
59458;SDS011;45269;43.568;22.244;2023-03-05T08:40:16;43.40;;;33.33;;
59458;SDS011;45269;43.568;22.244;2023-03-05T08:42:42;43.72;;;32.85;;
59458;SDS011;45269;43.568;22.244;2023-03-05T08:45:07;43.55;;;30.92;;
59458;SDS011;45269;43.568;22.244;2023-03-05T08:47:33;36.75;;;28.98;;
59458;SDS011;45269;43.568;22.244;2023-03-05T08:49:58;41.47;;;32.47;;
59458;SDS011;45269;43.568;22.244;2023-03-05T08:52:24;51.65;;;36.60;;
59458;SDS011;45269;43.568;22.244;2023-03-05T08:54:51;46.45;;;34.20;;
59458;SDS011;45269;43.568;22.244;2023-03-05T08:57:16;46.65;;;34.92;;
59458;SDS011;45269;43.568;22.244;2023-03-05T08:59:41;46.00;;;36.67;;
59458;SDS011;45269;43.568;22.244;2023-03-05T09:02:08;38.15;;;28.20;;
59458;SDS011;45269;43.568;22.244;2023-03-05T09:04:34;47.55;;;35.13;;
59458;SDS011;45269;43.568;22.244;2023-03-05T09:07:01;50.45;;;37.15;;
59458;SDS011;45269;43.568;22.244;2023-03-05T09:09:26;44.80;;;35.33;;
59458;SDS011;45269;43.568;22.244;2023-03-05T09:11:53;43.97;;;35.53;;
59458;SDS011;45269;43.568;22.244;2023-03-05T09:14:19;53.97;;;41.65;;
59458;SDS011;45269;43.568;22.244;2023-03-05T09:16:44;51.80;;;36.22;;
59458;SDS011;45269;43.568;22.244;2023-03-05T09:19:10;40.00;;;29.67;;
59458;SDS011;45269;43.568;22.244;2023-03-05T09:21:37;50.80;;;39.25;;
59458;SDS011;45269;43.568;22.244;2023-03-05T09:24:02;38.05;;;31.20;;
59458;SDS011;45269;43.568;22.244;2023-03-05T09:26:28;37.17;;;30.05;;
59458;SDS011;45269;43.568;22.244;2023-03-05T09:28:53;39.85;;;31.42;;
59458;SDS011;45269;43.568;22.244;2023-03-05T09:31:19;41.67;;;31.98;;
59458;SDS011;45269;43.568;22.244;2023-03-05T09:33:45;41.40;;;31.65;;
59458;SDS011;45269;43.568;22.244;2023-03-05T09:36:22;36.35;;;27.98;;
59458;SDS011;45269;43.568;22.244;2023-03-05T09:38:47;31.17;;;25.75;;
59458;SDS011;45269;43.568;22.244;2023-03-05T09:48:51;28.88;;;23.70;;
59458;SDS011;45269;43.568;22.244;2023-03-05T09:51:21;29.92;;;24.83;;
59458;SDS011;45269;43.568;22.244;2023-03-05T09:53:49;27.50;;;22.58;;
59458;SDS011;45269;43.568;22.244;2023-03-05T09:56:17;27.02;;;22.48;;
59458;SDS011;45269;43.568;22.244;2023-03-05T09:58:47;28.67;;;22.65;;
59458;SDS011;45269;43.568;22.244;2023-03-05T10:01:17;28.98;;;23.75;;
59458;SDS011;45269;43.568;22.244;2023-03-05T10:06:22;34.75;;;24.80;;
59458;SDS011;45269;43.568;22.244;2023-03-05T10:08:51;27.08;;;20.70;;
59458;SDS011;45269;43.568;22.244;2023-03-05T10:14:01;26.65;;;21.77;;
59458;SDS011;45269;43.568;22.244;2023-03-05T10:16:30;25.73;;;20.88;;
59458;SDS011;45269;43.568;22.244;2023-03-05T10:19:04;32.08;;;26.40;;
59458;SDS011;45269;43.568;22.244;2023-03-05T10:21:41;28.80;;;22.30;;
59458;SDS011;45269;43.568;22.244;2023-03-05T10:26:58;26.60;;;21.55;;
59458;SDS011;45269;43.568;22.244;2023-03-05T10:29:35;26.70;;;20.93;;
59458;SDS011;45269;43.568;22.244;2023-03-05T10:32:07;25.90;;;20.02;;
59458;SDS011;45269;43.568;22.244;2023-03-05T10:34:43;27.65;;;22.20;;
59458;SDS011;45269;43.568;22.244;2023-03-05T10:37:34;26.20;;;22.50;;
59458;SDS011;45269;43.568;22.244;2023-03-05T10:45:01;22.63;;;18.00;;
59458;SDS011;45269;43.568;22.244;2023-03-05T10:50:19;29.15;;;24.50;;
59458;SDS011;45269;43.568;22.244;2023-03-05T10:52:45;19.92;;;17.13;;
59458;SDS011;45269;43.568;22.244;2023-03-05T10:55:13;28.35;;;23.00;;
59458;SDS011;45269;43.568;22.244;2023-03-05T10:57:39;19.73;;;14.82;;
59458;SDS011;45269;43.568;22.244;2023-03-05T11:02:30;32.33;;;22.42;;
59458;SDS011;45269;43.568;22.244;2023-03-05T11:04:56;22.50;;;18.77;;
59458;SDS011;45269;43.568;22.244;2023-03-05T11:12:25;28.92;;;23.17;;
59458;SDS011;45269;43.568;22.244;2023-03-05T11:17:32;25.27;;;20.02;;
59458;SDS011;45269;43.568;22.244;2023-03-05T11:20:19;27.92;;;22.08;;
59458;SDS011;45269;43.568;22.244;2023-03-05T11:22:56;31.67;;;25.77;;
59458;SDS011;45269;43.568;22.244;2023-03-05T11:25:25;26.55;;;22.35;;
59458;SDS011;45269;43.568;22.244;2023-03-05T11:27:53;36.13;;;28.63;;
59458;SDS011;45269;43.568;22.244;2023-03-05T11:30:20;26.70;;;20.55;;
59458;SDS011;45269;43.568;22.244;2023-03-05T11:32:48;26.40;;;22.65;;
59458;SDS011;45269;43.568;22.244;2023-03-05T11:35:35;25.00;;;20.98;;
59458;SDS011;45269;43.568;22.244;2023-03-05T11:38:00;20.15;;;16.85;;
59458;SDS011;45269;43.568;22.244;2023-03-05T11:40:25;22.50;;;19.17;;
59458;SDS011;45269;43.568;22.244;2023-03-05T11:42:55;28.00;;;22.83;;
59458;SDS011;45269;43.568;22.244;2023-03-05T11:45:21;21.17;;;17.73;;
59458;SDS011;45269;43.568;22.244;2023-03-05T11:47:48;22.98;;;20.23;;
59458;SDS011;45269;43.568;22.244;2023-03-05T11:52:49;27.02;;;21.88;;
59458;SDS011;45269;43.568;22.244;2023-03-05T11:57:56;24.35;;;21.33;;
59458;SDS011;45269;43.568;22.244;2023-03-05T12:00:26;23.58;;;19.90;;
59458;SDS011;45269;43.568;22.244;2023-03-05T12:02:53;38.15;;;30.02;;
59458;SDS011;45269;43.568;22.244;2023-03-05T12:05:20;28.17;;;24.50;;
59458;SDS011;45269;43.568;22.244;2023-03-05T12:07:46;22.90;;;19.45;;
59458;SDS011;45269;43.568;22.244;2023-03-05T12:10:13;32.78;;;26.20;;
59458;SDS011;45269;43.568;22.244;2023-03-05T12:13:03;24.75;;;19.40;;
59458;SDS011;45269;43.568;22.244;2023-03-05T12:15:36;20.30;;;16.90;;
59458;SDS011;45269;43.568;22.244;2023-03-05T12:23:01;21.13;;;16.83;;
59458;SDS011;45269;43.568;22.244;2023-03-05T12:27:52;23.48;;;18.92;;
59458;SDS011;45269;43.568;22.244;2023-03-05T12:30:52;19.80;;;15.98;;
59458;SDS011;45269;43.568;22.244;2023-03-05T12:35:53;24.52;;;18.92;;
59458;SDS011;45269;43.568;22.244;2023-03-05T12:38:38;33.55;;;24.70;;
59458;SDS011;45269;43.568;22.244;2023-03-05T12:44:09;32.08;;;22.60;;
59458;SDS011;45269;43.568;22.244;2023-03-05T12:49:00;28.92;;;20.30;;
59458;SDS011;45269;43.568;22.244;2023-03-05T12:51:47;23.00;;;19.55;;
59458;SDS011;45269;43.568;22.244;2023-03-05T12:54:26;28.00;;;21.48;;
59458;SDS011;45269;43.568;22.244;2023-03-05T12:56:52;32.50;;;24.20;;
59458;SDS011;45269;43.568;22.244;2023-03-05T12:59:19;35.03;;;27.13;;
59458;SDS011;45269;43.568;22.244;2023-03-05T13:01:46;23.25;;;20.30;;
59458;SDS011;45269;43.568;22.244;2023-03-05T13:04:15;24.20;;;18.90;;
59458;SDS011;45269;43.568;22.244;2023-03-05T13:06:41;22.00;;;18.40;;
59458;SDS011;45269;43.568;22.244;2023-03-05T13:09:12;26.25;;;18.83;;
59458;SDS011;45269;43.568;22.244;2023-03-05T13:11:40;28.83;;;20.83;;
59458;SDS011;45269;43.568;22.244;2023-03-05T13:14:20;26.45;;;20.10;;
59458;SDS011;45269;43.568;22.244;2023-03-05T13:16:49;24.42;;;19.40;;
59458;SDS011;45269;43.568;22.244;2023-03-05T13:19:15;27.48;;;21.67;;
59458;SDS011;45269;43.568;22.244;2023-03-05T13:21:40;25.65;;;19.90;;
59458;SDS011;45269;43.568;22.244;2023-03-05T13:24:12;25.45;;;20.27;;
59458;SDS011;45269;43.568;22.244;2023-03-05T13:26:39;22.17;;;18.52;;
59458;SDS011;45269;43.568;22.244;2023-03-05T13:29:15;23.08;;;19.83;;
59458;SDS011;45269;43.568;22.244;2023-03-05T13:36:58;28.48;;;22.27;;
59458;SDS011;45269;43.568;22.244;2023-03-05T13:39:25;21.88;;;17.27;;
59458;SDS011;45269;43.568;22.244;2023-03-05T13:42:05;24.75;;;20.48;;
59458;SDS011;45269;43.568;22.244;2023-03-05T13:44:31;29.42;;;19.75;;
59458;SDS011;45269;43.568;22.244;2023-03-05T13:50:00;32.97;;;25.65;;
59458;SDS011;45269;43.568;22.244;2023-03-05T13:52:26;43.67;;;30.88;;
59458;SDS011;45269;43.568;22.244;2023-03-05T13:54:53;44.10;;;32.70;;
59458;SDS011;45269;43.568;22.244;2023-03-05T13:59:56;30.17;;;23.55;;
59458;SDS011;45269;43.568;22.244;2023-03-05T14:02:21;28.65;;;23.27;;
59458;SDS011;45269;43.568;22.244;2023-03-05T14:04:47;34.28;;;26.98;;
59458;SDS011;45269;43.568;22.244;2023-03-05T14:09:45;48.00;;;34.05;;
59458;SDS011;45269;43.568;22.244;2023-03-05T14:14:49;32.28;;;23.90;;
59458;SDS011;45269;43.568;22.244;2023-03-05T14:22:34;35.15;;;27.27;;
59458;SDS011;45269;43.568;22.244;2023-03-05T14:25:00;30.67;;;23.63;;
59458;SDS011;45269;43.568;22.244;2023-03-05T14:27:27;29.77;;;24.15;;
59458;SDS011;45269;43.568;22.244;2023-03-05T14:29:54;31.55;;;23.00;;
59458;SDS011;45269;43.568;22.244;2023-03-05T14:32:22;29.83;;;22.63;;
59458;SDS011;45269;43.568;22.244;2023-03-05T14:34:50;29.98;;;23.80;;
59458;SDS011;45269;43.568;22.244;2023-03-05T14:37:23;28.05;;;22.42;;
59458;SDS011;45269;43.568;22.244;2023-03-05T14:39:59;20.58;;;17.00;;
59458;SDS011;45269;43.568;22.244;2023-03-05T14:42:32;21.15;;;18.05;;
59458;SDS011;45269;43.568;22.244;2023-03-05T14:45:04;30.58;;;19.63;;
59458;SDS011;45269;43.568;22.244;2023-03-05T14:47:33;27.95;;;20.60;;
59458;SDS011;45269;43.568;22.244;2023-03-05T14:49:58;34.50;;;25.55;;
59458;SDS011;45269;43.568;22.244;2023-03-05T14:52:24;24.90;;;20.10;;
59458;SDS011;45269;43.568;22.244;2023-03-05T14:54:49;19.55;;;16.65;;
59458;SDS011;45269;43.568;22.244;2023-03-05T14:57:17;20.23;;;17.60;;
59458;SDS011;45269;43.568;22.244;2023-03-05T14:59:43;19.27;;;16.42;;
59458;SDS011;45269;43.568;22.244;2023-03-05T15:02:16;21.27;;;18.98;;
59458;SDS011;45269;43.568;22.244;2023-03-05T15:04:41;16.15;;;14.40;;
59458;SDS011;45269;43.568;22.244;2023-03-05T15:07:09;25.35;;;18.40;;
59458;SDS011;45269;43.568;22.244;2023-03-05T15:09:34;19.20;;;15.30;;
59458;SDS011;45269;43.568;22.244;2023-03-05T15:12:00;22.23;;;19.48;;
59458;SDS011;45269;43.568;22.244;2023-03-05T15:14:25;24.80;;;20.73;;
59458;SDS011;45269;43.568;22.244;2023-03-05T15:16:50;19.50;;;15.77;;